sensor_id;sensor_type;location;lat;lon;timestamp;temperature;humidity
78461;SHT31;67755;51.986;5.696;2023-08-08T00:01:06;18.7;63.2
78461;SHT31;67755;51.986;5.696;2023-08-08T00:03:36;18.7;63.4
78461;SHT31;67755;51.986;5.696;2023-08-08T00:06:06;18.7;63.5
78461;SHT31;67755;51.986;5.696;2023-08-08T00:08:36;18.7;63.7
78461;SHT31;67755;51.986;5.696;2023-08-08T00:11:05;18.7;63.8
78461;SHT31;67755;51.986;5.696;2023-08-08T00:13:36;18.7;64.3
78461;SHT31;67755;51.986;5.696;2023-08-08T00:16:07;18.6;64.3
78461;SHT31;67755;51.986;5.696;2023-08-08T00:18:39;18.6;64.6
78461;SHT31;67755;51.986;5.696;2023-08-08T00:21:08;18.6;64.6
78461;SHT31;67755;51.986;5.696;2023-08-08T00:23:40;18.6;64.9
78461;SHT31;67755;51.986;5.696;2023-08-08T00:26:09;18.6;64.7
78461;SHT31;67755;51.986;5.696;2023-08-08T00:28:39;18.6;64.7
78461;SHT31;67755;51.986;5.696;2023-08-08T00:31:08;18.6;65.2
78461;SHT31;67755;51.986;5.696;2023-08-08T00:33:40;18.6;65.0
78461;SHT31;67755;51.986;5.696;2023-08-08T00:36:10;18.6;65.0
78461;SHT31;67755;51.986;5.696;2023-08-08T00:38:39;18.6;65.2
78461;SHT31;67755;51.986;5.696;2023-08-08T00:41:09;18.6;65.4
78461;SHT31;67755;51.986;5.696;2023-08-08T00:43:38;18.6;64.9
78461;SHT31;67755;51.986;5.696;2023-08-08T00:46:08;18.6;64.8
78461;SHT31;67755;51.986;5.696;2023-08-08T00:48:38;18.6;65.3
78461;SHT31;67755;51.986;5.696;2023-08-08T00:51:07;18.6;65.4
78461;SHT31;67755;51.986;5.696;2023-08-08T00:53:37;18.6;65.6
78461;SHT31;67755;51.986;5.696;2023-08-08T00:56:07;18.7;65.4
78461;SHT31;67755;51.986;5.696;2023-08-08T00:58:36;18.7;65.8
78461;SHT31;67755;51.986;5.696;2023-08-08T01:01:06;18.7;66.0
78461;SHT31;67755;51.986;5.696;2023-08-08T01:03:36;18.7;65.7
78461;SHT31;67755;51.986;5.696;2023-08-08T01:06:11;18.7;65.7
78461;SHT31;67755;51.986;5.696;2023-08-08T01:08:48;18.7;65.7
78461;SHT31;67755;51.986;5.696;2023-08-08T01:11:20;18.7;66.4
78461;SHT31;67755;51.986;5.696;2023-08-08T01:13:51;18.7;66.7
78461;SHT31;67755;51.986;5.696;2023-08-08T01:16:26;18.7;66.5
78461;SHT31;67755;51.986;5.696;2023-08-08T01:18:56;18.8;66.6
78461;SHT31;67755;51.986;5.696;2023-08-08T01:21:27;18.8;66.6
78461;SHT31;67755;51.986;5.696;2023-08-08T01:24:13;18.8;66.7
78461;SHT31;67755;51.986;5.696;2023-08-08T01:26:43;18.8;66.6
78461;SHT31;67755;51.986;5.696;2023-08-08T01:29:13;18.8;66.4
78461;SHT31;67755;51.986;5.696;2023-08-08T01:31:42;18.8;66.5
78461;SHT31;67755;51.986;5.696;2023-08-08T01:34:12;18.8;66.3
78461;SHT31;67755;51.986;5.696;2023-08-08T01:36:51;18.8;66.5
78461;SHT31;67755;51.986;5.696;2023-08-08T01:39:26;18.8;66.4
78461;SHT31;67755;51.986;5.696;2023-08-08T01:41:59;18.8;66.2
78461;SHT31;67755;51.986;5.696;2023-08-08T01:44:29;18.8;66.3
78461;SHT31;67755;51.986;5.696;2023-08-08T01:47:02;18.9;66.2
78461;SHT31;67755;51.986;5.696;2023-08-08T01:49:31;18.9;66.1
78461;SHT31;67755;51.986;5.696;2023-08-08T01:52:01;18.9;66.0
78461;SHT31;67755;51.986;5.696;2023-08-08T01:54:31;18.9;65.9
78461;SHT31;67755;51.986;5.696;2023-08-08T01:57:00;18.8;66.0
78461;SHT31;67755;51.986;5.696;2023-08-08T01:59:30;18.8;66.0
78461;SHT31;67755;51.986;5.696;2023-08-08T02:01:59;18.8;66.0
78461;SHT31;67755;51.986;5.696;2023-08-08T02:04:29;18.8;66.1
78461;SHT31;67755;51.986;5.696;2023-08-08T02:06:58;18.8;65.7
78461;SHT31;67755;51.986;5.696;2023-08-08T02:09:28;18.8;66.0
78461;SHT31;67755;51.986;5.696;2023-08-08T02:11:57;18.8;66.1
78461;SHT31;67755;51.986;5.696;2023-08-08T02:14:27;18.8;65.9
78461;SHT31;67755;51.986;5.696;2023-08-08T02:16:57;18.8;65.7
78461;SHT31;67755;51.986;5.696;2023-08-08T02:19:26;18.8;65.5
78461;SHT31;67755;51.986;5.696;2023-08-08T02:22:00;18.8;65.1
78461;SHT31;67755;51.986;5.696;2023-08-08T02:24:29;18.8;65.2
78461;SHT31;67755;51.986;5.696;2023-08-08T02:26:59;18.7;65.0
78461;SHT31;67755;51.986;5.696;2023-08-08T02:29:28;18.7;65.1
78461;SHT31;67755;51.986;5.696;2023-08-08T02:31:59;18.7;65.1
78461;SHT31;67755;51.986;5.696;2023-08-08T02:34:29;18.7;64.9
78461;SHT31;67755;51.986;5.696;2023-08-08T02:36:58;18.7;65.2
78461;SHT31;67755;51.986;5.696;2023-08-08T02:39:28;18.7;65.1
78461;SHT31;67755;51.986;5.696;2023-08-08T02:41:57;18.7;65.2
78461;SHT31;67755;51.986;5.696;2023-08-08T02:44:27;18.7;65.0
78461;SHT31;67755;51.986;5.696;2023-08-08T02:46:57;18.7;65.1
78461;SHT31;67755;51.986;5.696;2023-08-08T02:49:27;18.7;64.9
78461;SHT31;67755;51.986;5.696;2023-08-08T02:51:57;18.7;64.9
78461;SHT31;67755;51.986;5.696;2023-08-08T02:54:26;18.7;64.8
78461;SHT31;67755;51.986;5.696;2023-08-08T02:56:58;18.6;64.5
78461;SHT31;67755;51.986;5.696;2023-08-08T02:59:27;18.6;64.6
78461;SHT31;67755;51.986;5.696;2023-08-08T03:01:57;18.6;64.8
78461;SHT31;67755;51.986;5.696;2023-08-08T03:04:26;18.6;64.5
78461;SHT31;67755;51.986;5.696;2023-08-08T03:06:56;18.6;64.7
78461;SHT31;67755;51.986;5.696;2023-08-08T03:09:25;18.6;65.2
78461;SHT31;67755;51.986;5.696;2023-08-08T03:11:55;18.6;65.5
78461;SHT31;67755;51.986;5.696;2023-08-08T03:14:24;18.5;65.7
78461;SHT31;67755;51.986;5.696;2023-08-08T03:16:54;18.5;66.1
78461;SHT31;67755;51.986;5.696;2023-08-08T03:19:25;18.5;66.6
78461;SHT31;67755;51.986;5.696;2023-08-08T03:21:55;18.5;66.7
78461;SHT31;67755;51.986;5.696;2023-08-08T03:24:25;18.5;66.9
78461;SHT31;67755;51.986;5.696;2023-08-08T03:26:54;18.5;66.9
78461;SHT31;67755;51.986;5.696;2023-08-08T03:29:24;18.5;67.2
78461;SHT31;67755;51.986;5.696;2023-08-08T03:31:53;18.5;67.1
78461;SHT31;67755;51.986;5.696;2023-08-08T03:34:24;18.5;66.8
78461;SHT31;67755;51.986;5.696;2023-08-08T03:36:53;18.5;67.0
78461;SHT31;67755;51.986;5.696;2023-08-08T03:39:26;18.5;67.0
78461;SHT31;67755;51.986;5.696;2023-08-08T03:41:56;18.5;67.2
78461;SHT31;67755;51.986;5.696;2023-08-08T03:44:27;18.5;67.0
78461;SHT31;67755;51.986;5.696;2023-08-08T03:46:57;18.5;66.9
78461;SHT31;67755;51.986;5.696;2023-08-08T03:49:28;18.5;67.2
78461;SHT31;67755;51.986;5.696;2023-08-08T03:51:59;18.5;66.9
78461;SHT31;67755;51.986;5.696;2023-08-08T03:54:29;18.5;66.9
78461;SHT31;67755;51.986;5.696;2023-08-08T03:56:59;18.5;66.9
78461;SHT31;67755;51.986;5.696;2023-08-08T03:59:28;18.5;66.8
78461;SHT31;67755;51.986;5.696;2023-08-08T04:01:58;18.5;66.7
78461;SHT31;67755;51.986;5.696;2023-08-08T04:04:27;18.5;66.9
78461;SHT31;67755;51.986;5.696;2023-08-08T04:06:57;18.5;67.1
78461;SHT31;67755;51.986;5.696;2023-08-08T04:09:26;18.5;66.9
78461;SHT31;67755;51.986;5.696;2023-08-08T04:11:56;18.5;67.0
78461;SHT31;67755;51.986;5.696;2023-08-08T04:14:26;18.5;66.9
78461;SHT31;67755;51.986;5.696;2023-08-08T04:16:55;18.5;67.1
78461;SHT31;67755;51.986;5.696;2023-08-08T04:19:25;18.5;67.2
78461;SHT31;67755;51.986;5.696;2023-08-08T04:21:54;18.5;67.1
78461;SHT31;67755;51.986;5.696;2023-08-08T04:24:25;18.5;67.1
78461;SHT31;67755;51.986;5.696;2023-08-08T04:26:54;18.5;66.9
78461;SHT31;67755;51.986;5.696;2023-08-08T04:29:24;18.5;66.9
78461;SHT31;67755;51.986;5.696;2023-08-08T04:31:53;18.5;67.0
78461;SHT31;67755;51.986;5.696;2023-08-08T04:34:23;18.5;67.2
78461;SHT31;67755;51.986;5.696;2023-08-08T04:36:52;18.5;67.2
78461;SHT31;67755;51.986;5.696;2023-08-08T04:39:23;18.5;67.2
78461;SHT31;67755;51.986;5.696;2023-08-08T04:41:53;18.5;67.4
78461;SHT31;67755;51.986;5.696;2023-08-08T04:44:23;18.5;67.4
78461;SHT31;67755;51.986;5.696;2023-08-08T04:46:53;18.5;67.6
78461;SHT31;67755;51.986;5.696;2023-08-08T04:49:22;18.5;67.7
78461;SHT31;67755;51.986;5.696;2023-08-08T04:51:52;18.5;67.6
78461;SHT31;67755;51.986;5.696;2023-08-08T04:54:21;18.5;67.5
78461;SHT31;67755;51.986;5.696;2023-08-08T04:56:51;18.5;67.3
78461;SHT31;67755;51.986;5.696;2023-08-08T04:59:20;18.5;67.3
78461;SHT31;67755;51.986;5.696;2023-08-08T05:01:50;18.5;67.0
78461;SHT31;67755;51.986;5.696;2023-08-08T05:04:21;18.5;66.7
78461;SHT31;67755;51.986;5.696;2023-08-08T05:06:51;18.5;66.7
78461;SHT31;67755;51.986;5.696;2023-08-08T05:09:20;18.6;66.7
78461;SHT31;67755;51.986;5.696;2023-08-08T05:11:53;18.6;66.8
78461;SHT31;67755;51.986;5.696;2023-08-08T05:14:23;18.6;67.1
78461;SHT31;67755;51.986;5.696;2023-08-08T05:16:52;18.6;67.2
78461;SHT31;67755;51.986;5.696;2023-08-08T05:19:26;18.6;67.4
78461;SHT31;67755;51.986;5.696;2023-08-08T05:21:55;18.6;67.5
78461;SHT31;67755;51.986;5.696;2023-08-08T05:24:25;18.6;67.4
78461;SHT31;67755;51.986;5.696;2023-08-08T05:26:54;18.6;67.7
78461;SHT31;67755;51.986;5.696;2023-08-08T05:29:24;18.6;68.0
78461;SHT31;67755;51.986;5.696;2023-08-08T05:31:54;18.6;68.2
78461;SHT31;67755;51.986;5.696;2023-08-08T05:34:24;18.6;67.9
78461;SHT31;67755;51.986;5.696;2023-08-08T05:36:53;18.6;67.6
78461;SHT31;67755;51.986;5.696;2023-08-08T05:39:23;18.6;68.1
78461;SHT31;67755;51.986;5.696;2023-08-08T05:41:52;18.6;68.4
78461;SHT31;67755;51.986;5.696;2023-08-08T05:44:22;18.6;67.9
78461;SHT31;67755;51.986;5.696;2023-08-08T05:46:56;18.6;68.2
78461;SHT31;67755;51.986;5.696;2023-08-08T05:49:27;18.6;67.9
78461;SHT31;67755;51.986;5.696;2023-08-08T05:51:56;18.6;68.3
78461;SHT31;67755;51.986;5.696;2023-08-08T05:54:26;18.6;68.7
78461;SHT31;67755;51.986;5.696;2023-08-08T05:56:57;18.7;68.9
78461;SHT31;67755;51.986;5.696;2023-08-08T05:59:27;18.7;68.2
78461;SHT31;67755;51.986;5.696;2023-08-08T06:01:56;18.7;68.0
78461;SHT31;67755;51.986;5.696;2023-08-08T06:04:26;18.7;67.8
78461;SHT31;67755;51.986;5.696;2023-08-08T06:06:56;18.7;67.9
78461;SHT31;67755;51.986;5.696;2023-08-08T06:09:25;18.8;67.4
78461;SHT31;67755;51.986;5.696;2023-08-08T06:11:55;18.8;66.7
78461;SHT31;67755;51.986;5.696;2023-08-08T06:14:24;18.8;67.5
78461;SHT31;67755;51.986;5.696;2023-08-08T06:16:54;18.8;67.0
78461;SHT31;67755;51.986;5.696;2023-08-08T06:19:23;18.8;67.7
78461;SHT31;67755;51.986;5.696;2023-08-08T06:21:53;18.8;66.4
78461;SHT31;67755;51.986;5.696;2023-08-08T06:24:22;18.9;67.2
78461;SHT31;67755;51.986;5.696;2023-08-08T06:26:52;18.9;66.5
78461;SHT31;67755;51.986;5.696;2023-08-08T06:29:23;18.9;66.8
78461;SHT31;67755;51.986;5.696;2023-08-08T06:31:54;18.9;65.5
78461;SHT31;67755;51.986;5.696;2023-08-08T06:34:23;18.9;65.5
78461;SHT31;67755;51.986;5.696;2023-08-08T06:36:53;18.9;64.4
78461;SHT31;67755;51.986;5.696;2023-08-08T06:39:23;19.0;64.6
78461;SHT31;67755;51.986;5.696;2023-08-08T06:41:55;19.0;63.7
78461;SHT31;67755;51.986;5.696;2023-08-08T06:44:24;19.0;64.2
78461;SHT31;67755;51.986;5.696;2023-08-08T06:46:54;19.0;64.1
78461;SHT31;67755;51.986;5.696;2023-08-08T06:49:24;19.0;64.1
78461;SHT31;67755;51.986;5.696;2023-08-08T06:51:53;19.0;64.7
78461;SHT31;67755;51.986;5.696;2023-08-08T06:54:23;19.0;64.4
78461;SHT31;67755;51.986;5.696;2023-08-08T06:56:54;19.0;62.1
78461;SHT31;67755;51.986;5.696;2023-08-08T06:59:25;19.0;62.3
78461;SHT31;67755;51.986;5.696;2023-08-08T07:01:55;19.0;61.5
78461;SHT31;67755;51.986;5.696;2023-08-08T07:04:27;19.0;60.8
78461;SHT31;67755;51.986;5.696;2023-08-08T07:06:59;19.0;63.1
78461;SHT31;67755;51.986;5.696;2023-08-08T07:09:29;19.0;61.5
78461;SHT31;67755;51.986;5.696;2023-08-08T07:11:58;19.0;61.0
78461;SHT31;67755;51.986;5.696;2023-08-08T07:14:28;19.0;62.7
78461;SHT31;67755;51.986;5.696;2023-08-08T07:16:57;19.0;61.8
78461;SHT31;67755;51.986;5.696;2023-08-08T07:19:27;19.0;63.0
78461;SHT31;67755;51.986;5.696;2023-08-08T07:21:56;19.1;62.1
78461;SHT31;67755;51.986;5.696;2023-08-08T07:24:26;19.1;62.3
78461;SHT31;67755;51.986;5.696;2023-08-08T07:26:58;19.1;61.4
78461;SHT31;67755;51.986;5.696;2023-08-08T07:29:30;19.2;61.1
78461;SHT31;67755;51.986;5.696;2023-08-08T07:32:03;19.2;62.2
78461;SHT31;67755;51.986;5.696;2023-08-08T07:34:33;19.2;62.0
78461;SHT31;67755;51.986;5.696;2023-08-08T07:37:05;19.3;60.2
78461;SHT31;67755;51.986;5.696;2023-08-08T07:39:34;19.3;58.4
78461;SHT31;67755;51.986;5.696;2023-08-08T07:42:04;19.3;60.6
78461;SHT31;67755;51.986;5.696;2023-08-08T07:44:34;19.4;61.0
78461;SHT31;67755;51.986;5.696;2023-08-08T07:47:08;19.4;59.8
78461;SHT31;67755;51.986;5.696;2023-08-08T07:49:38;19.5;60.1
78461;SHT31;67755;51.986;5.696;2023-08-08T07:52:08;19.6;59.8
78461;SHT31;67755;51.986;5.696;2023-08-08T07:54:37;19.6;59.4
78461;SHT31;67755;51.986;5.696;2023-08-08T07:57:07;19.7;58.0
78461;SHT31;67755;51.986;5.696;2023-08-08T07:59:38;19.8;57.2
78461;SHT31;67755;51.986;5.696;2023-08-08T08:02:09;19.9;55.3
78461;SHT31;67755;51.986;5.696;2023-08-08T08:04:39;19.9;55.5
78461;SHT31;67755;51.986;5.696;2023-08-08T08:07:08;20.0;56.2
78461;SHT31;67755;51.986;5.696;2023-08-08T08:09:38;20.0;57.2
78461;SHT31;67755;51.986;5.696;2023-08-08T08:12:10;20.1;56.5
78461;SHT31;67755;51.986;5.696;2023-08-08T08:14:41;20.1;55.2
78461;SHT31;67755;51.986;5.696;2023-08-08T08:17:11;20.2;56.1
78461;SHT31;67755;51.986;5.696;2023-08-08T08:19:40;20.3;56.3
78461;SHT31;67755;51.986;5.696;2023-08-08T08:22:10;20.4;55.8
78461;SHT31;67755;51.986;5.696;2023-08-08T08:24:39;20.4;55.5
78461;SHT31;67755;51.986;5.696;2023-08-08T08:27:09;20.5;54.0
78461;SHT31;67755;51.986;5.696;2023-08-08T08:29:39;20.5;54.7
78461;SHT31;67755;51.986;5.696;2023-08-08T08:32:09;20.6;54.0
78461;SHT31;67755;51.986;5.696;2023-08-08T08:34:40;20.6;53.7
78461;SHT31;67755;51.986;5.696;2023-08-08T08:37:11;20.7;53.1
78461;SHT31;67755;51.986;5.696;2023-08-08T08:39:41;20.8;53.8
78461;SHT31;67755;51.986;5.696;2023-08-08T08:42:13;20.8;52.1
78461;SHT31;67755;51.986;5.696;2023-08-08T08:44:46;20.8;53.0
78461;SHT31;67755;51.986;5.696;2023-08-08T08:47:20;20.9;52.2
78461;SHT31;67755;51.986;5.696;2023-08-08T08:49:52;20.9;53.2
78461;SHT31;67755;51.986;5.696;2023-08-08T08:52:24;20.9;52.2
78461;SHT31;67755;51.986;5.696;2023-08-08T08:54:54;21.0;51.2
78461;SHT31;67755;51.986;5.696;2023-08-08T08:57:24;21.0;52.1
78461;SHT31;67755;51.986;5.696;2023-08-08T08:59:56;21.0;51.0
78461;SHT31;67755;51.986;5.696;2023-08-08T09:02:29;21.1;50.5
78461;SHT31;67755;51.986;5.696;2023-08-08T09:05:00;21.1;50.1
78461;SHT31;67755;51.986;5.696;2023-08-08T09:07:32;21.2;52.0
78461;SHT31;67755;51.986;5.696;2023-08-08T09:10:02;21.2;52.4
78461;SHT31;67755;51.986;5.696;2023-08-08T09:12:33;21.3;51.0
78461;SHT31;67755;51.986;5.696;2023-08-08T09:15:04;21.3;50.4
78461;SHT31;67755;51.986;5.696;2023-08-08T09:17:39;21.4;49.0
78461;SHT31;67755;51.986;5.696;2023-08-08T09:20:11;21.4;51.2
78461;SHT31;67755;51.986;5.696;2023-08-08T09:22:40;21.5;49.5
78461;SHT31;67755;51.986;5.696;2023-08-08T09:25:10;21.5;49.3
78461;SHT31;67755;51.986;5.696;2023-08-08T09:27:41;21.6;51.3
78461;SHT31;67755;51.986;5.696;2023-08-08T09:30:11;21.6;48.7
78461;SHT31;67755;51.986;5.696;2023-08-08T09:32:43;21.7;49.1
78461;SHT31;67755;51.986;5.696;2023-08-08T09:35:14;21.7;46.5
78461;SHT31;67755;51.986;5.696;2023-08-08T09:37:44;21.8;47.5
78461;SHT31;67755;51.986;5.696;2023-08-08T09:40:14;21.8;48.4
78461;SHT31;67755;51.986;5.696;2023-08-08T09:42:44;21.9;46.8
78461;SHT31;67755;51.986;5.696;2023-08-08T09:45:14;21.9;47.7
78461;SHT31;67755;51.986;5.696;2023-08-08T09:47:43;22.0;46.4
78461;SHT31;67755;51.986;5.696;2023-08-08T09:50:15;22.1;46.0
78461;SHT31;67755;51.986;5.696;2023-08-08T09:52:46;22.1;47.0
78461;SHT31;67755;51.986;5.696;2023-08-08T09:55:16;22.2;44.7
78461;SHT31;67755;51.986;5.696;2023-08-08T09:57:48;22.2;48.4
78461;SHT31;67755;51.986;5.696;2023-08-08T10:00:19;22.2;45.6
78461;SHT31;67755;51.986;5.696;2023-08-08T10:02:48;22.3;47.9
78461;SHT31;67755;51.986;5.696;2023-08-08T10:05:18;22.3;46.0
78461;SHT31;67755;51.986;5.696;2023-08-08T10:07:48;22.3;45.5
78461;SHT31;67755;51.986;5.696;2023-08-08T10:10:18;22.3;45.2
78461;SHT31;67755;51.986;5.696;2023-08-08T10:12:48;22.3;45.3
78461;SHT31;67755;51.986;5.696;2023-08-08T10:15:18;22.3;46.5
78461;SHT31;67755;51.986;5.696;2023-08-08T10:17:55;22.4;47.7
78461;SHT31;67755;51.986;5.696;2023-08-08T10:20:26;22.4;45.5
78461;SHT31;67755;51.986;5.696;2023-08-08T10:22:55;22.4;46.9
78461;SHT31;67755;51.986;5.696;2023-08-08T10:25:29;22.3;47.6
78461;SHT31;67755;51.986;5.696;2023-08-08T10:28:05;22.3;47.2
78461;SHT31;67755;51.986;5.696;2023-08-08T10:30:45;22.4;46.3
78461;SHT31;67755;51.986;5.696;2023-08-08T10:33:20;22.4;45.9
78461;SHT31;67755;51.986;5.696;2023-08-08T10:35:56;22.4;46.9
78461;SHT31;67755;51.986;5.696;2023-08-08T10:38:27;22.4;47.7
78461;SHT31;67755;51.986;5.696;2023-08-08T10:41:02;22.4;47.2
78461;SHT31;67755;51.986;5.696;2023-08-08T10:43:32;22.4;46.1
78461;SHT31;67755;51.986;5.696;2023-08-08T10:46:04;22.5;45.8
78461;SHT31;67755;51.986;5.696;2023-08-08T10:48:34;22.5;45.7
78461;SHT31;67755;51.986;5.696;2023-08-08T10:51:06;22.5;46.2
78461;SHT31;67755;51.986;5.696;2023-08-08T10:53:36;22.5;47.7
78461;SHT31;67755;51.986;5.696;2023-08-08T10:56:06;22.6;46.4
78461;SHT31;67755;51.986;5.696;2023-08-08T10:58:42;22.6;46.6
78461;SHT31;67755;51.986;5.696;2023-08-08T11:01:12;22.6;46.3
78461;SHT31;67755;51.986;5.696;2023-08-08T11:03:46;22.6;47.8
78461;SHT31;67755;51.986;5.696;2023-08-08T11:06:17;22.7;45.2
78461;SHT31;67755;51.986;5.696;2023-08-08T11:08:50;22.7;46.1
78461;SHT31;67755;51.986;5.696;2023-08-08T11:11:23;22.7;47.6
78461;SHT31;67755;51.986;5.696;2023-08-08T11:13:53;22.7;44.1
78461;SHT31;67755;51.986;5.696;2023-08-08T11:16:22;22.7;45.1
78461;SHT31;67755;51.986;5.696;2023-08-08T11:18:55;22.7;45.6
78461;SHT31;67755;51.986;5.696;2023-08-08T11:21:25;22.7;43.7
78461;SHT31;67755;51.986;5.696;2023-08-08T11:23:56;22.7;42.4
78461;SHT31;67755;51.986;5.696;2023-08-08T11:26:27;22.7;45.2
78461;SHT31;67755;51.986;5.696;2023-08-08T11:29:00;22.6;44.9
78461;SHT31;67755;51.986;5.696;2023-08-08T11:31:32;22.6;47.8
78461;SHT31;67755;51.986;5.696;2023-08-08T11:34:02;22.5;47.8
78461;SHT31;67755;51.986;5.696;2023-08-08T11:36:34;22.5;47.0
78461;SHT31;67755;51.986;5.696;2023-08-08T11:39:07;22.5;49.3
78461;SHT31;67755;51.986;5.696;2023-08-08T11:41:39;22.6;45.6
78461;SHT31;67755;51.986;5.696;2023-08-08T11:44:11;22.6;46.3
78461;SHT31;67755;51.986;5.696;2023-08-08T11:46:45;22.6;46.7
78461;SHT31;67755;51.986;5.696;2023-08-08T11:49:16;22.6;48.0
78461;SHT31;67755;51.986;5.696;2023-08-08T11:51:47;22.6;46.6
78461;SHT31;67755;51.986;5.696;2023-08-08T11:54:16;22.7;45.7
78461;SHT31;67755;51.986;5.696;2023-08-08T11:56:50;22.7;45.7
78461;SHT31;67755;51.986;5.696;2023-08-08T11:59:23;22.7;47.3
78461;SHT31;67755;51.986;5.696;2023-08-08T12:01:52;22.7;46.4
78461;SHT31;67755;51.986;5.696;2023-08-08T12:04:22;22.7;46.3
78461;SHT31;67755;51.986;5.696;2023-08-08T12:07:02;22.7;44.6
78461;SHT31;67755;51.986;5.696;2023-08-08T12:09:33;22.7;45.5
78461;SHT31;67755;51.986;5.696;2023-08-08T12:12:03;22.8;47.4
78461;SHT31;67755;51.986;5.696;2023-08-08T12:14:37;22.8;44.8
78461;SHT31;67755;51.986;5.696;2023-08-08T12:17:09;22.8;44.2
78461;SHT31;67755;51.986;5.696;2023-08-08T12:19:44;22.8;44.7
78461;SHT31;67755;51.986;5.696;2023-08-08T12:22:14;22.8;44.5
78461;SHT31;67755;51.986;5.696;2023-08-08T12:24:44;22.8;47.3
78461;SHT31;67755;51.986;5.696;2023-08-08T12:27:14;22.8;47.3
78461;SHT31;67755;51.986;5.696;2023-08-08T12:29:44;22.8;45.0
78461;SHT31;67755;51.986;5.696;2023-08-08T12:32:13;22.8;45.5
78461;SHT31;67755;51.986;5.696;2023-08-08T12:34:43;22.8;47.0
78461;SHT31;67755;51.986;5.696;2023-08-08T12:37:14;22.8;47.8
78461;SHT31;67755;51.986;5.696;2023-08-08T12:39:45;22.8;44.9
78461;SHT31;67755;51.986;5.696;2023-08-08T12:42:16;22.8;44.2
78461;SHT31;67755;51.986;5.696;2023-08-08T12:44:48;22.8;45.8
78461;SHT31;67755;51.986;5.696;2023-08-08T12:47:19;22.8;45.6
78461;SHT31;67755;51.986;5.696;2023-08-08T12:49:49;22.9;48.9
78461;SHT31;67755;51.986;5.696;2023-08-08T12:52:20;22.9;47.5
78461;SHT31;67755;51.986;5.696;2023-08-08T12:54:51;22.9;45.7
78461;SHT31;67755;51.986;5.696;2023-08-08T12:57:21;22.9;46.3
78461;SHT31;67755;51.986;5.696;2023-08-08T12:59:51;23.0;45.6
78461;SHT31;67755;51.986;5.696;2023-08-08T13:02:21;23.0;46.9
78461;SHT31;67755;51.986;5.696;2023-08-08T13:04:51;23.0;45.7
78461;SHT31;67755;51.986;5.696;2023-08-08T13:07:20;23.0;46.5
78461;SHT31;67755;51.986;5.696;2023-08-08T13:09:50;23.0;46.0
78461;SHT31;67755;51.986;5.696;2023-08-08T13:12:19;23.0;46.2
78461;SHT31;67755;51.986;5.696;2023-08-08T13:14:49;23.0;46.2
78461;SHT31;67755;51.986;5.696;2023-08-08T13:17:18;22.9;46.4
78461;SHT31;67755;51.986;5.696;2023-08-08T13:19:48;22.9;45.0
78461;SHT31;67755;51.986;5.696;2023-08-08T13:22:18;22.9;44.9
78461;SHT31;67755;51.986;5.696;2023-08-08T13:24:48;22.9;44.9
78461;SHT31;67755;51.986;5.696;2023-08-08T13:27:17;22.8;46.3
78461;SHT31;67755;51.986;5.696;2023-08-08T13:29:47;22.8;47.5
78461;SHT31;67755;51.986;5.696;2023-08-08T13:32:16;22.8;46.0
78461;SHT31;67755;51.986;5.696;2023-08-08T13:34:46;22.8;47.0
78461;SHT31;67755;51.986;5.696;2023-08-08T13:37:16;22.7;46.7
78461;SHT31;67755;51.986;5.696;2023-08-08T13:39:47;22.7;46.0
78461;SHT31;67755;51.986;5.696;2023-08-08T13:42:17;22.7;46.8
78461;SHT31;67755;51.986;5.696;2023-08-08T13:44:46;22.7;47.1
78461;SHT31;67755;51.986;5.696;2023-08-08T13:47:17;22.7;48.0
78461;SHT31;67755;51.986;5.696;2023-08-08T13:49:47;22.7;45.1
78461;SHT31;67755;51.986;5.696;2023-08-08T13:52:17;22.7;47.1
78461;SHT31;67755;51.986;5.696;2023-08-08T13:54:46;22.7;47.0
78461;SHT31;67755;51.986;5.696;2023-08-08T13:57:16;22.7;47.5
78461;SHT31;67755;51.986;5.696;2023-08-08T13:59:45;22.7;50.2
78461;SHT31;67755;51.986;5.696;2023-08-08T14:02:15;22.7;48.3
78461;SHT31;67755;51.986;5.696;2023-08-08T14:04:45;22.7;48.7
78461;SHT31;67755;51.986;5.696;2023-08-08T14:07:15;22.8;47.4
78461;SHT31;67755;51.986;5.696;2023-08-08T14:09:45;22.8;46.0
78461;SHT31;67755;51.986;5.696;2023-08-08T14:12:14;22.8;47.1
78461;SHT31;67755;51.986;5.696;2023-08-08T14:14:44;22.8;49.6
78461;SHT31;67755;51.986;5.696;2023-08-08T14:17:13;22.7;48.5
78461;SHT31;67755;51.986;5.696;2023-08-08T14:19:43;22.7;48.1
78461;SHT31;67755;51.986;5.696;2023-08-08T14:22:13;22.7;47.4
78461;SHT31;67755;51.986;5.696;2023-08-08T14:24:43;22.7;48.0
78461;SHT31;67755;51.986;5.696;2023-08-08T14:27:14;22.7;46.0
78461;SHT31;67755;51.986;5.696;2023-08-08T14:29:44;22.7;48.2
78461;SHT31;67755;51.986;5.696;2023-08-08T14:32:14;22.6;48.6
78461;SHT31;67755;51.986;5.696;2023-08-08T14:34:44;22.6;45.7
78461;SHT31;67755;51.986;5.696;2023-08-08T14:37:14;22.6;46.4
78461;SHT31;67755;51.986;5.696;2023-08-08T14:39:43;22.6;47.1
78461;SHT31;67755;51.986;5.696;2023-08-08T14:42:13;22.6;46.3
78461;SHT31;67755;51.986;5.696;2023-08-08T14:44:44;22.6;47.3
78461;SHT31;67755;51.986;5.696;2023-08-08T14:47:14;22.6;48.9
78461;SHT31;67755;51.986;5.696;2023-08-08T14:49:43;22.6;47.4
78461;SHT31;67755;51.986;5.696;2023-08-08T14:52:13;22.6;49.2
78461;SHT31;67755;51.986;5.696;2023-08-08T14:54:43;22.7;47.7
78461;SHT31;67755;51.986;5.696;2023-08-08T14:57:14;22.7;48.0
78461;SHT31;67755;51.986;5.696;2023-08-08T14:59:44;22.7;47.8
78461;SHT31;67755;51.986;5.696;2023-08-08T15:02:14;22.8;47.8
78461;SHT31;67755;51.986;5.696;2023-08-08T15:04:43;22.8;46.9
78461;SHT31;67755;51.986;5.696;2023-08-08T15:07:13;22.8;47.2
78461;SHT31;67755;51.986;5.696;2023-08-08T15:09:42;22.8;46.5
78461;SHT31;67755;51.986;5.696;2023-08-08T15:12:14;22.8;48.2
78461;SHT31;67755;51.986;5.696;2023-08-08T15:14:44;22.8;47.7
78461;SHT31;67755;51.986;5.696;2023-08-08T15:17:16;22.8;48.7
78461;SHT31;67755;51.986;5.696;2023-08-08T15:19:46;22.8;47.3
78461;SHT31;67755;51.986;5.696;2023-08-08T15:22:15;22.8;47.9
78461;SHT31;67755;51.986;5.696;2023-08-08T15:24:45;22.8;46.1
78461;SHT31;67755;51.986;5.696;2023-08-08T15:27:15;22.8;46.1
78461;SHT31;67755;51.986;5.696;2023-08-08T15:29:45;22.8;46.9
78461;SHT31;67755;51.986;5.696;2023-08-08T15:32:14;22.8;46.5
78461;SHT31;67755;51.986;5.696;2023-08-08T15:34:44;22.9;46.8
78461;SHT31;67755;51.986;5.696;2023-08-08T15:37:13;22.9;45.7
78461;SHT31;67755;51.986;5.696;2023-08-08T15:39:43;22.9;46.1
78461;SHT31;67755;51.986;5.696;2023-08-08T15:42:13;22.9;46.4
78461;SHT31;67755;51.986;5.696;2023-08-08T15:44:42;22.9;45.6
78461;SHT31;67755;51.986;5.696;2023-08-08T15:47:12;22.9;45.6
78461;SHT31;67755;51.986;5.696;2023-08-08T15:49:42;22.9;44.8
78461;SHT31;67755;51.986;5.696;2023-08-08T15:52:11;22.9;46.6
78461;SHT31;67755;51.986;5.696;2023-08-08T15:54:41;22.9;45.7
78461;SHT31;67755;51.986;5.696;2023-08-08T15:57:10;22.8;47.7
78461;SHT31;67755;51.986;5.696;2023-08-08T15:59:40;22.8;46.7
78461;SHT31;67755;51.986;5.696;2023-08-08T16:02:10;22.8;46.0
78461;SHT31;67755;51.986;5.696;2023-08-08T16:04:40;22.8;45.3
78461;SHT31;67755;51.986;5.696;2023-08-08T16:07:09;22.8;45.4
78461;SHT31;67755;51.986;5.696;2023-08-08T16:09:42;22.8;46.7
78461;SHT31;67755;51.986;5.696;2023-08-08T16:12:11;22.7;46.6
78461;SHT31;67755;51.986;5.696;2023-08-08T16:14:41;22.7;47.6
78461;SHT31;67755;51.986;5.696;2023-08-08T16:17:13;22.7;47.8
78461;SHT31;67755;51.986;5.696;2023-08-08T16:19:42;22.7;47.5
78461;SHT31;67755;51.986;5.696;2023-08-08T16:22:13;22.7;46.9